Time;durP1;ratioP1;P1;durP2;ratioP2;P2;SDS_P1;SDS_P2;PMS_P1;PMS_P2;Temp;Humidity;BMP_temperature;BMP_pressure;BME280_temperature;BME280_humidity;BME280_pressure;Samples;Min_cycle;Max_cycle;Signal;HPM_P1;HPM_P2
2022/05/28 00:01:38;;;;;;;16.13;2.22;;;12.10;99.90;;;;;;5055299;28;20477;-88
2022/05/28 00:04:05;;;;;;;16.90;3.13;;;12.10;99.90;;;;;;5056330;28;20041;-88
2022/05/28 00:06:32;;;;;;;33.78;3.90;;;12.10;99.90;;;;;;5054916;28;20507;-89
2022/05/28 00:09:02;;;;;;;17.52;2.25;;;12.10;99.90;;;;;;5054729;28;20052;-88
2022/05/28 00:11:41;;;;;;;15.32;3.80;;;12.10;99.90;;;;;;5055379;28;20033;-89
2022/05/28 00:14:10;;;;;;;26.35;2.88;;;12.10;99.90;;;;;;5056145;28;20040;-89
2022/05/28 00:16:36;;;;;;;39.72;4.47;;;12.00;99.90;;;;;;5054504;28;20063;-88
2022/05/28 00:19:05;;;;;;;14.98;2.95;;;12.00;99.90;;;;;;5054668;28;20045;-89
2022/05/28 00:21:32;;;;;;;13.35;2.53;;;12.00;99.90;;;;;;5054785;28;20051;-88
2022/05/28 00:23:59;;;;;;;14.38;2.40;;;12.10;99.90;;;;;;5054572;28;20580;-89
2022/05/28 00:26:25;;;;;;;23.98;4.75;;;12.00;99.90;;;;;;5054506;28;20052;-89
2022/05/28 00:28:53;;;;;;;22.88;2.75;;;12.00;99.90;;;;;;5055739;28;20045;-89
2022/05/28 00:31:19;;;;;;;30.80;3.80;;;12.00;99.90;;;;;;5054606;28;20048;-89
2022/05/28 00:33:45;;;;;;;27.25;3.20;;;11.90;99.90;;;;;;5054470;28;20139;-89
2022/05/28 00:36:12;;;;;;;27.88;3.92;;;11.90;99.90;;;;;;5055657;28;20049;-89
2022/05/28 00:38:40;;;;;;;12.23;2.00;;;11.90;99.90;;;;;;5054309;28;20060;-89
2022/05/28 00:41:07;;;;;;;21.15;2.67;;;12.00;99.90;;;;;;5054541;28;20049;-89
2022/05/28 00:43:32;;;;;;;18.40;2.55;;;11.90;99.90;;;;;;5054572;28;20092;-89
2022/05/28 00:46:09;;;;;;;12.93;2.13;;;11.90;99.90;;;;;;5054232;28;20454;-89
2022/05/28 00:48:40;;;;;;;33.45;2.75;;;12.00;99.90;;;;;;5053976;28;20128;-89
2022/05/28 00:51:11;;;;;;;20.42;4.72;;;11.90;99.90;;;;;;5054232;28;20045;-89
2022/05/28 00:53:40;;;;;;;13.23;3.13;;;11.90;99.90;;;;;;5054066;28;20132;-89
2022/05/28 00:56:06;;;;;;;18.52;2.58;;;11.90;99.90;;;;;;5054359;28;20048;-89
2022/05/28 00:58:33;;;;;;;20.85;3.40;;;12.00;99.90;;;;;;5055336;28;20036;-90
2022/05/28 01:00:59;;;;;;;14.13;2.53;;;11.90;99.90;;;;;;5054341;28;20116;-89
2022/05/28 01:03:54;;;;;;;16.10;3.17;;;11.90;99.90;;;;;;5054324;28;20049;-90
2022/05/28 01:06:26;;;;;;;25.38;4.15;;;11.90;99.90;;;;;;5054001;28;20526;-90
2022/05/28 01:09:01;;;;;;;16.23;2.72;;;11.90;99.90;;;;;;5054041;28;20048;-89
2022/05/28 01:11:48;;;;;;;39.25;4.45;;;11.90;99.90;;;;;;5053771;28;20123;-90
2022/05/28 01:14:29;;;;;;;24.20;3.65;;;11.90;99.90;;;;;;5053901;28;20045;-90
2022/05/28 01:17:04;;;;;;;18.45;3.95;;;11.90;99.90;;;;;;5053660;28;20092;-90
2022/05/28 01:19:30;;;;;;;25.75;3.33;;;11.90;99.90;;;;;;5053640;28;20063;-89
2022/05/28 01:21:55;;;;;;;13.52;2.80;;;11.90;99.90;;;;;;5053422;28;20041;-89
2022/05/28 01:24:26;;;;;;;20.30;2.67;;;11.90;99.90;;;;;;5053773;28;20060;-89
2022/05/28 01:26:59;;;;;;;23.70;3.30;;;11.80;99.90;;;;;;5054552;28;20477;-90
2022/05/28 01:29:31;;;;;;;22.60;3.33;;;11.90;99.90;;;;;;5054691;28;20052;-89
2022/05/28 01:32:00;;;;;;;19.00;3.10;;;11.80;99.90;;;;;;5053774;28;20087;-89
2022/05/28 01:34:28;;;;;;;15.95;3.03;;;11.80;99.90;;;;;;5053698;28;20139;-89
2022/05/28 01:36:55;;;;;;;14.07;2.70;;;11.80;99.90;;;;;;5054362;28;20059;-89
2022/05/28 01:39:22;;;;;;;19.98;2.90;;;11.80;99.90;;;;;;5053132;28;20405;-88
2022/05/28 01:41:49;;;;;;;18.85;2.85;;;11.80;99.90;;;;;;5053078;28;20377;-88
2022/05/28 01:44:16;;;;;;;21.20;3.13;;;11.80;99.90;;;;;;5053311;28;20472;-89
2022/05/28 01:46:44;;;;;;;22.52;2.75;;;11.80;99.90;;;;;;5054349;28;20055;-89
2022/05/28 01:49:13;;;;;;;21.75;3.80;;;11.80;99.90;;;;;;5052758;28;20059;-88
2022/05/28 01:51:47;;;;;;;18.20;3.72;;;11.80;99.90;;;;;;5054334;28;20041;-87
2022/05/28 01:54:16;;;;;;;13.18;2.22;;;11.80;99.90;;;;;;5052869;28;20374;-88
2022/05/28 01:56:45;;;;;;;31.25;4.03;;;11.80;99.90;;;;;;5052892;28;20120;-89
2022/05/28 01:59:18;;;;;;;20.55;3.78;;;11.80;99.90;;;;;;5052779;28;20603;-89
2022/05/28 02:01:44;;;;;;;30.23;4.20;;;11.80;99.90;;;;;;5053026;28;20061;-90
2022/05/28 02:04:10;;;;;;;23.35;4.30;;;11.80;99.90;;;;;;5052841;28;20045;-90
2022/05/28 02:06:38;;;;;;;18.27;2.42;;;11.80;99.90;;;;;;5052933;28;20076;-89
2022/05/28 02:09:07;;;;;;;22.40;4.13;;;11.70;99.90;;;;;;5052691;28;20052;-89
2022/05/28 02:12:04;;;;;;;27.98;4.20;;;11.70;99.90;;;;;;5053956;28;20126;-89
2022/05/28 02:14:46;;;;;;;24.67;5.18;;;11.70;99.90;;;;;;5053977;28;20045;-90
2022/05/28 02:17:32;;;;;;;23.00;3.50;;;11.70;99.90;;;;;;5053704;28;20049;-89
2022/05/28 02:20:10;;;;;;;23.50;3.47;;;11.70;99.90;;;;;;5035937;28;20134;-90
2022/05/28 02:23:00;;;;;;;23.98;4.20;;;11.70;99.90;;;;;;5053726;28;20040;-89
2022/05/28 02:25:48;;;;;;;31.67;4.45;;;11.70;99.90;;;;;;5035779;28;20037;-90
2022/05/28 02:28:15;;;;;;;28.90;4.07;;;11.60;99.90;;;;;;5035951;28;20141;-89
2022/05/28 02:30:53;;;;;;;28.02;4.53;;;11.60;99.90;;;;;;5035652;28;20056;-89
2022/05/28 02:33:20;;;;;;;25.92;5.28;;;11.60;99.90;;;;;;5035734;28;20068;-91
2022/05/28 02:35:46;;;;;;;28.35;4.30;;;11.60;99.90;;;;;;5036062;28;20449;-90
2022/05/28 02:38:14;;;;;;;29.95;4.57;;;11.50;99.90;;;;;;5034773;28;20128;-90
2022/05/28 02:40:40;;;;;;;16.15;3.13;;;11.50;99.90;;;;;;5035483;28;20400;-89
2022/05/28 02:43:06;;;;;;;32.10;5.57;;;11.60;99.90;;;;;;5053644;28;20041;-90
2022/05/28 02:45:32;;;;;;;23.40;5.15;;;11.40;99.90;;;;;;5035806;28;20485;-90
2022/05/28 02:47:57;;;;;;;27.80;4.57;;;11.40;99.90;;;;;;5035504;28;20041;-89
2022/05/28 02:50:27;;;;;;;37.00;4.72;;;11.40;99.90;;;;;;5035870;28;20219;-89
2022/05/28 02:52:53;;;;;;;26.58;3.72;;;11.40;99.90;;;;;;5035619;28;20120;-89
2022/05/28 02:55:19;;;;;;;23.63;3.35;;;11.40;99.90;;;;;;5035757;28;20118;-89
2022/05/28 02:57:45;;;;;;;22.00;5.18;;;11.50;99.90;;;;;;5035587;28;20473;-84
2022/05/28 03:00:13;;;;;;;20.92;3.58;;;11.50;99.90;;;;;;5053370;28;20052;-85
2022/05/28 03:02:38;;;;;;;22.10;4.00;;;11.50;99.90;;;;;;5053403;28;20120;-85
2022/05/28 03:05:04;;;;;;;25.05;4.40;;;11.50;99.90;;;;;;5035505;28;20156;-85
2022/05/28 03:07:30;;;;;;;29.65;4.90;;;11.50;99.90;;;;;;5035353;28;20044;-85
2022/05/28 03:09:56;;;;;;;30.80;3.90;;;11.50;99.90;;;;;;5035350;28;20043;-85
2022/05/28 03:12:21;;;;;;;21.67;4.57;;;11.50;99.90;;;;;;5035274;28;20041;-89
2022/05/28 03:14:47;;;;;;;23.33;4.45;;;11.60;99.90;;;;;;5035360;28;20045;-89
2022/05/28 03:17:13;;;;;;;23.55;4.32;;;11.50;99.90;;;;;;5040239;28;20049;-89
2022/05/28 03:19:38;;;;;;;36.38;3.90;;;11.60;99.90;;;;;;5052866;28;20076;-89
2022/05/28 03:22:04;;;;;;;23.23;4.30;;;11.50;99.90;;;;;;5052042;28;20048;-89
2022/05/28 03:24:30;;;;;;;25.42;4.70;;;11.50;99.90;;;;;;5051941;28;20045;-88
2022/05/28 03:26:57;;;;;;;16.50;3.15;;;11.50;99.90;;;;;;5051649;28;20408;-89
2022/05/28 03:29:24;;;;;;;22.52;3.40;;;11.50;99.90;;;;;;5051703;28;20045;-89
2022/05/28 03:31:50;;;;;;;24.10;3.90;;;11.50;99.90;;;;;;5051902;28;20427;-88
2022/05/28 03:34:16;;;;;;;22.48;3.45;;;11.50;99.90;;;;;;5051735;28;20047;-88
2022/05/28 03:36:42;;;;;;;27.42;4.40;;;11.50;99.90;;;;;;5051728;28;20124;-88
2022/05/28 03:39:08;;;;;;;17.90;3.58;;;11.50;99.90;;;;;;5055083;28;20041;-89
2022/05/28 03:41:34;;;;;;;25.05;5.03;;;11.50;99.90;;;;;;5051935;28;20052;-88
2022/05/28 03:43:59;;;;;;;20.08;3.67;;;11.50;99.90;;;;;;5053119;28;20041;-89
2022/05/28 03:46:30;;;;;;;18.80;4.32;;;11.50;99.90;;;;;;5053043;28;20053;-89
2022/05/28 03:49:03;;;;;;;23.08;3.97;;;11.50;99.90;;;;;;5052224;28;20046;-89
2022/05/28 03:51:30;;;;;;;25.95;4.00;;;11.50;99.90;;;;;;5054670;28;20041;-88
2022/05/28 03:53:55;;;;;;;23.23;3.45;;;11.50;99.90;;;;;;5054811;28;20123;-88
2022/05/28 03:56:21;;;;;;;19.60;4.75;;;11.60;99.90;;;;;;5056135;28;20227;-88
2022/05/28 03:58:49;;;;;;;18.50;4.13;;;11.60;99.90;;;;;;5055153;28;20052;-88
2022/05/28 04:01:15;;;;;;;27.45;5.32;;;11.50;99.90;;;;;;5055000;28;20439;-88
2022/05/28 04:03:40;;;;;;;32.70;4.80;;;11.60;99.90;;;;;;5056226;28;20485;-89
2022/05/28 04:06:06;;;;;;;32.78;4.85;;;11.50;99.90;;;;;;5054698;28;20476;-88
2022/05/28 04:08:32;;;;;;;23.50;3.55;;;11.50;99.90;;;;;;5054719;28;20045;-88
2022/05/28 04:10:57;;;;;;;31.05;4.53;;;11.60;99.90;;;;;;5054691;28;20072;-88
2022/05/28 04:13:23;;;;;;;29.50;5.68;;;11.60;99.90;;;;;;5054752;28;20044;-87
2022/05/28 04:15:50;;;;;;;27.45;4.30;;;11.60;99.90;;;;;;5054753;28;20392;-87
2022/05/28 04:18:16;;;;;;;24.77;4.20;;;11.60;99.90;;;;;;5055597;28;20056;-88
2022/05/28 04:20:41;;;;;;;20.35;3.63;;;11.70;99.90;;;;;;5055834;28;20045;-88
2022/05/28 04:23:07;;;;;;;23.10;3.67;;;11.70;99.90;;;;;;5038091;28;20144;-88
2022/05/28 04:25:33;;;;;;;22.02;4.13;;;11.70;99.90;;;;;;5037678;28;20102;-88
2022/05/28 04:27:59;;;;;;;25.92;5.13;;;11.60;99.90;;;;;;5037708;28;20501;-88
2022/05/28 04:30:25;;;;;;;36.65;4.55;;;11.70;99.90;;;;;;5055662;28;20051;-89
2022/05/28 04:32:50;;;;;;;35.05;5.47;;;11.60;99.90;;;;;;5037854;28;20068;-90
2022/05/28 04:35:16;;;;;;;27.45;4.13;;;11.60;99.90;;;;;;5055481;28;20405;-88
2022/05/28 04:37:41;;;;;;;30.13;3.72;;;11.70;99.90;;;;;;5037833;28;20052;-89
2022/05/28 04:40:08;;;;;;;34.20;4.53;;;11.80;99.90;;;;;;5037478;28;20508;-88
2022/05/28 04:42:34;;;;;;;32.25;4.22;;;11.90;99.90;;;;;;5037422;28;20566;-89
2022/05/28 04:45:00;;;;;;;23.05;6.70;;;11.80;99.90;;;;;;5055536;28;20064;-88
2022/05/28 04:47:25;;;;;;;26.23;4.20;;;11.90;99.90;;;;;;5037221;28;20377;-88
2022/05/28 04:49:51;;;;;;;31.83;4.25;;;12.00;99.90;;;;;;5037073;28;20129;-88
2022/05/28 04:52:17;;;;;;;19.85;5.15;;;12.10;99.90;;;;;;5037125;28;20044;-88
2022/05/28 04:54:42;;;;;;;29.88;4.65;;;12.20;99.90;;;;;;5055239;28;20044;-88
2022/05/28 04:57:08;;;;;;;28.83;5.05;;;12.20;99.90;;;;;;5054889;28;20045;-88
2022/05/28 04:59:33;;;;;;;34.58;6.32;;;12.20;99.90;;;;;;5036994;28;20072;-88
2022/05/28 05:01:59;;;;;;;27.10;7.57;;;12.20;99.90;;;;;;5054288;28;20105;-85
2022/05/28 05:04:25;;;;;;;30.38;6.25;;;12.30;99.90;;;;;;5054915;28;20045;-86
2022/05/28 05:06:50;;;;;;;29.77;4.65;;;12.40;99.90;;;;;;5037629;28;20045;-85
2022/05/28 05:09:16;;;;;;;32.15;4.28;;;12.40;99.90;;;;;;5036831;28;20052;-85
2022/05/28 05:11:42;;;;;;;22.67;3.92;;;12.40;99.90;;;;;;5036759;28;20037;-85
2022/05/28 05:14:07;;;;;;;29.88;5.43;;;12.50;99.90;;;;;;5054812;28;20056;-85
2022/05/28 05:16:33;;;;;;;28.10;6.00;;;12.60;99.90;;;;;;5054354;28;20064;-87
2022/05/28 05:18:59;;;;;;;32.92;4.22;;;12.70;99.90;;;;;;5036919;28;20053;-86
2022/05/28 05:21:24;;;;;;;25.63;4.45;;;12.70;99.90;;;;;;5036564;28;20484;-86
2022/05/28 05:23:50;;;;;;;34.17;5.57;;;12.80;99.90;;;;;;5054433;28;20049;-90
2022/05/28 05:26:19;;;;;;;35.55;6.70;;;12.80;99.90;;;;;;5054271;28;20499;-88
2022/05/28 05:28:45;;;;;;;31.52;6.00;;;12.80;99.90;;;;;;5036438;28;20516;-88
2022/05/28 05:31:11;;;;;;;34.28;4.85;;;12.60;99.90;;;;;;5036386;28;20080;-88
2022/05/28 05:33:36;;;;;;;27.90;4.55;;;12.60;99.90;;;;;;5036317;28;20063;-90
2022/05/28 05:36:06;;;;;;;19.73;4.10;;;12.70;99.90;;;;;;5054344;28;20150;-89
2022/05/28 05:38:32;;;;;;;32.17;5.57;;;12.60;99.90;;;;;;5036417;28;20049;-89
2022/05/28 05:40:57;;;;;;;29.05;4.85;;;12.50;99.90;;;;;;5036444;28;20171;-88
2022/05/28 05:43:23;;;;;;;25.83;5.28;;;12.50;99.90;;;;;;5036212;28;20158;-88
2022/05/28 05:46:00;;;;;;;22.85;5.63;;;12.40;99.90;;;;;;5054186;28;20044;-91
2022/05/28 05:48:28;;;;;;;42.78;7.93;;;12.40;99.90;;;;;;5035986;28;20128;-90
2022/05/28 05:50:54;;;;;;;15.20;2.75;;;12.40;99.90;;;;;;5036239;28;20434;-89
2022/05/28 05:53:20;;;;;;;16.73;2.70;;;12.40;99.90;;;;;;5035985;28;20180;-90
2022/05/28 05:55:46;;;;;;;12.98;2.60;;;12.40;99.90;;;;;;5035912;28;20053;-89
2022/05/28 05:58:13;;;;;;;17.30;2.40;;;12.30;99.90;;;;;;5036012;28;20072;-89
2022/05/28 06:00:39;;;;;;;17.08;3.42;;;12.20;99.90;;;;;;5035928;28;20048;-90
2022/05/28 06:03:06;;;;;;;20.83;3.83;;;12.40;99.90;;;;;;5035901;28;20051;-89
2022/05/28 06:05:35;;;;;;;17.38;3.03;;;12.60;99.90;;;;;;5035837;28;20123;-90
2022/05/28 06:08:00;;;;;;;11.30;2.83;;;12.90;99.90;;;;;;5035756;28;20041;-91
2022/05/28 06:10:26;;;;;;;25.15;4.95;;;13.00;99.90;;;;;;5053787;28;20048;-89
2022/05/28 06:12:54;;;;;;;18.52;4.45;;;13.10;99.90;;;;;;5053432;28;20127;-88
2022/05/28 06:15:20;;;;;;;22.40;3.45;;;13.10;99.90;;;;;;5035805;28;20036;-89
2022/05/28 06:17:48;;;;;;;31.40;5.45;;;13.00;99.90;;;;;;5046109;28;20451;-89
2022/05/28 06:20:14;;;;;;;27.23;5.90;;;12.90;99.90;;;;;;5052552;28;20052;-89
2022/05/28 06:22:39;;;;;;;23.25;5.10;;;12.70;99.90;;;;;;5052215;28;20045;-88
2022/05/28 06:25:05;;;;;;;24.38;4.60;;;12.50;99.90;;;;;;5052539;28;20057;-89
2022/05/28 06:27:32;;;;;;;36.17;4.60;;;12.40;99.90;;;;;;5040028;28;20056;-87
2022/05/28 06:29:58;;;;;;;27.67;4.15;;;12.30;99.90;;;;;;5035446;28;20123;-88
2022/05/28 06:32:23;;;;;;;24.80;4.15;;;12.20;99.90;;;;;;5035284;28;20129;-88
2022/05/28 06:34:49;;;;;;;23.77;4.13;;;12.30;99.90;;;;;;5035329;28;20107;-89
2022/05/28 06:37:15;;;;;;;25.35;4.20;;;12.40;99.90;;;;;;5035458;28;20111;-86
2022/05/28 06:39:41;;;;;;;26.33;5.28;;;12.40;99.90;;;;;;5035283;28;20140;-87
2022/05/28 06:42:07;;;;;;;28.35;6.32;;;12.40;99.90;;;;;;5035256;28;20120;-89
2022/05/28 06:44:33;;;;;;;27.35;4.53;;;12.40;99.90;;;;;;5035015;28;20048;-90
2022/05/28 06:46:59;;;;;;;33.05;6.70;;;12.30;99.90;;;;;;5035429;28;20044;-87
2022/05/28 06:49:25;;;;;;;38.70;5.85;;;12.30;99.90;;;;;;5034946;28;20052;-87
2022/05/28 06:51:52;;;;;;;27.05;4.80;;;12.40;99.90;;;;;;5052945;28;20041;-89
2022/05/28 06:54:21;;;;;;;37.13;5.28;;;12.40;99.90;;;;;;5053355;28;20112;-88
2022/05/28 06:56:46;;;;;;;28.63;4.78;;;12.60;99.90;;;;;;5053142;28;20132;-88
2022/05/28 06:59:12;;;;;;;18.60;3.35;;;12.90;99.90;;;;;;5052883;28;20128;-88
2022/05/28 07:01:37;;;;;;;26.98;3.80;;;13.30;99.90;;;;;;5052917;28;20045;-88
2022/05/28 07:04:04;;;;;;;21.23;4.25;;;13.50;99.90;;;;;;5053068;28;20045;-88
2022/05/28 07:06:31;;;;;;;31.95;5.25;;;13.70;99.90;;;;;;5034967;28;20111;-88
2022/05/28 07:08:58;;;;;;;26.08;3.95;;;13.70;99.90;;;;;;5035038;28;20488;-92
2022/05/28 07:11:24;;;;;;;32.80;4.90;;;13.60;99.90;;;;;;5035020;28;20087;-86
2022/05/28 07:13:49;;;;;;;22.05;4.50;;;13.50;99.90;;;;;;5053042;28;20041;-87
2022/05/28 07:16:15;;;;;;;16.55;5.03;;;13.50;99.90;;;;;;5052504;28;20053;-86
2022/05/28 07:18:41;;;;;;;17.58;3.30;;;13.80;99.90;;;;;;5035123;28;20424;-87
2022/05/28 07:21:08;;;;;;;11.38;2.85;;;14.00;99.90;;;;;;5034655;28;20128;-86
2022/05/28 07:23:35;;;;;;;17.17;3.65;;;14.10;99.90;;;;;;5034443;28;20095;-87
2022/05/28 07:26:27;;;;;;;22.73;3.20;;;14.10;99.90;;;;;;5038396;28;20068;-87
2022/05/28 07:28:53;;;;;;;18.95;3.30;;;13.90;99.90;;;;;;5031588;28;20049;-87
2022/05/28 07:31:21;;;;;;;18.48;3.67;;;14.00;99.90;;;;;;5032776;28;20071;-87
2022/05/28 07:33:48;;;;;;;23.92;3.20;;;14.20;99.90;;;;;;5056381;28;20140;-88
2022/05/28 07:36:19;;;;;;;23.95;4.78;;;14.50;99.90;;;;;;5056267;28;20094;-88
2022/05/28 07:38:45;;;;;;;22.92;4.13;;;14.60;99.90;;;;;;5056434;28;20048;-87
2022/05/28 07:41:14;;;;;;;20.63;4.10;;;14.70;99.90;;;;;;5055380;28;20060;-86
2022/05/28 07:43:41;;;;;;;19.17;2.95;;;14.60;99.90;;;;;;5018466;28;20087;-87
2022/05/28 07:46:12;;;;;;;15.90;2.78;;;14.60;99.90;;;;;;5018458;28;20076;-87
2022/05/28 07:48:38;;;;;;;20.30;3.53;;;14.40;99.90;;;;;;5018412;28;20045;-87
2022/05/28 07:51:04;;;;;;;15.55;3.08;;;14.40;99.90;;;;;;5018527;28;20393;-87
2022/05/28 07:53:29;;;;;;;23.50;3.72;;;14.60;99.90;;;;;;5049815;28;20076;-88
2022/05/28 07:55:55;;;;;;;21.23;4.15;;;14.70;99.90;;;;;;5037926;28;20045;-87
2022/05/28 07:58:21;;;;;;;14.98;3.13;;;14.90;99.90;;;;;;5055579;28;20053;-86
2022/05/28 08:00:49;;;;;;;23.48;3.03;;;15.10;99.90;;;;;;5037665;28;20450;-86
2022/05/28 08:03:16;;;;;;;19.48;2.65;;;15.20;99.90;;;;;;5055327;28;20045;-87
2022/05/28 08:05:44;;;;;;;18.60;3.15;;;15.30;99.90;;;;;;5034390;28;20079;-88
2022/05/28 08:08:10;;;;;;;19.55;4.32;;;15.50;99.90;;;;;;5027812;28;20048;-90
2022/05/28 08:10:37;;;;;;;24.67;2.83;;;15.40;99.90;;;;;;5030680;28;20041;-88
2022/05/28 08:13:10;;;;;;;13.00;2.92;;;15.00;99.90;;;;;;5055140;28;20037;-87
2022/05/28 08:15:38;;;;;;;21.73;3.47;;;14.90;99.90;;;;;;5037951;28;20048;-88
2022/05/28 08:18:04;;;;;;;14.23;3.20;;;15.10;99.90;;;;;;5037466;28;20409;-87
2022/05/28 08:23:15;;;;;;;15.52;3.33;;;15.50;99.90;;;;;;5036779;28;20138;-87
2022/05/28 08:25:41;;;;;;;19.95;3.65;;;15.50;99.90;;;;;;5037739;28;20056;-86
2022/05/28 08:28:11;;;;;;;13.15;2.97;;;15.10;99.90;;;;;;5037586;28;20052;-87
2022/05/28 08:30:40;;;;;;;23.65;3.25;;;15.00;99.90;;;;;;5028475;28;20409;-86
2022/05/28 08:33:08;;;;;;;21.75;3.58;;;14.70;99.90;;;;;;5055412;28;20044;-87
2022/05/28 08:35:35;;;;;;;11.18;2.72;;;14.60;99.90;;;;;;5036032;28;20546;-86
2022/05/28 08:38:06;;;;;;;19.00;2.65;;;14.50;99.90;;;;;;5031284;28;20049;-86
2022/05/28 08:40:37;;;;;;;19.83;2.78;;;14.40;99.90;;;;;;5037803;28;20037;-86
2022/05/28 08:43:03;;;;;;;18.77;3.40;;;14.10;99.90;;;;;;5035277;28;20041;-87
2022/05/28 08:45:32;;;;;;;29.35;3.83;;;14.20;99.90;;;;;;5016651;28;20053;-86
2022/05/28 08:48:00;;;;;;;23.80;3.97;;;14.00;99.90;;;;;;5015776;28;20481;-89
2022/05/28 08:50:27;;;;;;;20.10;3.45;;;14.10;99.90;;;;;;5017223;28;20053;-86
2022/05/28 08:53:14;;;;;;;22.00;3.35;;;14.30;99.90;;;;;;5017178;28;20512;-87
2022/05/28 08:55:45;;;;;;;14.75;3.25;;;14.40;99.90;;;;;;5017408;28;20107;-86
2022/05/28 08:58:17;;;;;;;20.90;3.40;;;14.60;99.90;;;;;;5035052;28;20065;-85
2022/05/28 09:00:52;;;;;;;24.25;3.70;;;14.80;99.90;;;;;;5034736;28;20428;-86
2022/05/28 09:03:25;;;;;;;15.95;3.28;;;14.80;99.90;;;;;;5016156;28;20128;-85
2022/05/28 09:06:05;;;;;;;20.42;3.53;;;14.60;99.90;;;;;;5034768;28;20077;-83
2022/05/28 09:08:46;;;;;;;28.13;3.75;;;14.70;99.90;;;;;;5016934;28;20088;-83
2022/05/28 09:11:21;;;;;;;23.48;3.33;;;14.60;99.90;;;;;;5016836;28;20099;-85
2022/05/28 09:13:49;;;;;;;17.90;3.47;;;14.40;99.90;;;;;;5016814;28;20045;-84
2022/05/28 09:16:30;;;;;;;22.90;3.00;;;14.50;99.90;;;;;;5016496;28;20057;-84
2022/05/28 09:19:03;;;;;;;16.65;2.35;;;14.80;99.90;;;;;;5034657;28;20118;-86
2022/05/28 09:21:28;;;;;;;13.35;1.92;;;14.90;99.90;;;;;;5020715;28;20037;-87
2022/05/28 09:24:01;;;;;;;15.25;2.50;;;15.20;99.90;;;;;;5034641;28;20068;-84
2022/05/28 09:26:31;;;;;;;20.63;2.95;;;15.30;99.90;;;;;;5034265;28;20052;-82
2022/05/28 09:29:28;;;;;;;18.23;2.92;;;15.40;99.90;;;;;;5053989;28;20099;-83
2022/05/28 09:32:05;;;;;;;18.58;2.70;;;15.30;99.90;;;;;;5036396;28;20052;-85
2022/05/28 09:34:43;;;;;;;24.55;3.47;;;15.30;99.90;;;;;;5036521;28;20049;-87
2022/05/28 09:37:36;;;;;;;11.15;2.58;;;15.40;99.90;;;;;;5016603;28;20045;-88
2022/05/28 09:40:31;;;;;;;18.77;2.55;;;15.60;99.90;;;;;;5034109;28;20084;-87
2022/05/28 09:43:27;;;;;;;16.88;3.40;;;15.50;99.90;;;;;;5036188;28;20556;-87
2022/05/28 09:46:14;;;;;;;11.07;2.22;;;15.40;99.90;;;;;;4992219;28;20049;-87
2022/05/28 09:48:40;;;;;;;14.63;2.17;;;15.50;99.90;;;;;;5015940;28;20045;-88
2022/05/28 09:51:27;;;;;;;15.57;2.58;;;15.40;99.90;;;;;;5016219;28;20417;-86
2022/05/28 09:54:17;;;;;;;15.57;2.13;;;15.60;99.90;;;;;;5033986;28;20041;-86
2022/05/28 09:57:14;;;;;;;12.30;1.80;;;15.70;99.90;;;;;;5030312;28;20045;-86
2022/05/28 09:59:43;;;;;;;13.93;1.75;;;15.70;99.90;;;;;;5035666;28;20041;-84
2022/05/28 10:06:08;;;;;;;14.55;1.80;;;15.90;99.90;;;;;;5053956;28;20211;-86
2022/05/28 10:08:34;;;;;;;14.98;3.10;;;16.20;99.90;;;;;;5020207;28;20068;-86
2022/05/28 10:11:03;;;;;;;14.25;2.10;;;16.50;99.90;;;;;;5035674;28;20045;-86
2022/05/28 10:13:31;;;;;;;23.70;2.35;;;16.60;99.90;;;;;;5035610;28;20053;-87
2022/05/28 10:15:59;;;;;;;20.40;3.03;;;16.60;99.90;;;;;;5035838;28;20059;-88
2022/05/28 10:18:33;;;;;;;22.85;3.25;;;16.40;99.90;;;;;;5035772;28;20535;-88
2022/05/28 10:21:17;;;;;;;15.18;2.95;;;16.00;99.90;;;;;;5035590;28;20510;-88
2022/05/28 10:23:50;;;;;;;17.65;2.90;;;16.00;99.90;;;;;;5035843;28;20472;-90
2022/05/28 10:26:21;;;;;;;14.85;2.15;;;16.10;99.90;;;;;;5035844;28;20102;-88
2022/05/28 10:28:50;;;;;;;23.45;3.00;;;16.10;99.90;;;;;;5035538;28;20052;-90
2022/05/28 10:31:25;;;;;;;13.25;2.17;;;16.40;99.90;;;;;;5035473;28;20570;-89
2022/05/28 10:33:51;;;;;;;15.02;2.72;;;16.50;99.90;;;;;;5035963;28;20056;-84
2022/05/28 10:36:21;;;;;;;14.60;2.83;;;16.40;99.90;;;;;;5035850;28;20090;-89
2022/05/28 10:38:47;;;;;;;18.10;3.13;;;16.30;99.90;;;;;;5036064;28;20048;-91
2022/05/28 10:41:22;;;;;;;19.88;3.10;;;16.40;99.90;;;;;;5035559;28;20396;-91
2022/05/28 10:43:49;;;;;;;13.23;2.50;;;16.40;99.90;;;;;;5036007;28;20064;-91
2022/05/28 10:46:42;;;;;;;18.40;2.85;;;16.40;99.90;;;;;;5053577;28;20049;-90
2022/05/28 10:49:31;;;;;;;14.77;3.13;;;16.50;99.90;;;;;;5035587;28;20098;-89
2022/05/28 10:52:16;;;;;;;17.30;3.15;;;16.90;99.90;;;;;;5035440;28;20401;-90
2022/05/28 10:55:04;;;;;;;12.90;2.50;;;16.70;99.90;;;;;;5037345;28;20049;-90
2022/05/28 10:57:47;;;;;;;25.00;3.78;;;16.50;99.90;;;;;;5035915;28;20041;-90
2022/05/28 11:00:32;;;;;;;17.33;2.97;;;16.30;99.90;;;;;;5037480;28;20049;-90
2022/05/28 11:03:12;;;;;;;16.42;2.80;;;15.90;99.90;;;;;;5039693;28;20041;-94
2022/05/28 11:06:02;;;;;;;18.35;3.05;;;15.60;99.90;;;;;;5057676;28;20130;-92
2022/05/28 11:08:41;;;;;;;15.75;3.10;;;15.40;99.90;;;;;;5040984;28;20059;-94
2022/05/28 11:11:39;;;;;;;16.63;3.50;;;15.60;99.90;;;;;;5040219;28;20048;-94
2022/05/28 11:14:25;;;;;;;15.25;3.70;;;15.40;99.90;;;;;;5038377;28;20093;-92
2022/05/28 11:17:18;;;;;;;17.48;2.90;;;15.30;99.90;;;;;;5041871;28;20562;-92
2022/05/28 11:20:02;;;;;;;17.40;2.63;;;15.50;99.90;;;;;;5055564;28;20494;-94
2022/05/28 11:22:54;;;;;;;17.40;3.42;;;15.80;99.90;;;;;;5057228;28;20048;-92
2022/05/28 11:25:32;;;;;;;21.13;4.40;;;15.90;99.90;;;;;;5055632;28;20059;-91
2022/05/28 11:28:20;;;;;;;15.60;3.40;;;16.10;99.90;;;;;;5055481;28;20047;-94
2022/05/28 11:30:50;;;;;;;21.05;3.53;;;16.20;99.90;;;;;;5056916;28;20156;-92
2022/05/28 11:33:37;;;;;;;16.58;3.00;;;16.30;99.90;;;;;;5055728;28;20049;-93
2022/05/28 11:36:10;;;;;;;18.63;3.20;;;16.30;99.90;;;;;;5056483;28;20071;-94
2022/05/28 11:38:48;;;;;;;;;;;16.10;99.90;;;;;;5056322;28;20049;-94
2022/05/28 11:41:23;;;;;;;24.13;3.35;;;15.80;99.90;;;;;;5057129;28;19921;-93
2022/05/28 11:44:23;;;;;;;24.58;4.07;;;15.50;99.90;;;;;;5050308;28;20045;-93
2022/05/28 11:46:54;;;;;;;22.65;3.13;;;15.60;99.90;;;;;;5039200;28;20049;-93
2022/05/28 11:52:21;;;;;;;19.45;3.00;;;15.60;99.90;;;;;;5038844;28;20052;-88
2022/05/28 11:54:52;;;;;;;14.02;2.83;;;15.70;99.90;;;;;;5039282;28;20415;-92
2022/05/28 11:57:37;;;;;;;31.45;6.88;;;16.00;99.90;;;;;;5038101;28;20037;-91
2022/05/28 12:00:07;;;;;;;18.33;2.88;;;15.90;99.90;;;;;;5038187;28;20079;-92
2022/05/28 12:02:49;;;;;;;18.38;3.25;;;15.90;99.90;;;;;;5056065;28;20056;-91
2022/05/28 12:05:21;;;;;;;20.70;2.73;;;16.10;99.90;;;;;;5056244;28;20045;-92
2022/05/28 12:07:54;;;;;;;21.55;3.30;;;16.10;99.90;;;;;;5038226;28;20378;-91
2022/05/28 12:10:39;;;;;;;20.13;3.20;;;16.00;99.90;;;;;;5055565;28;20386;-91
2022/05/28 12:13:06;;;;;;;20.40;3.58;;;15.90;99.90;;;;;;5037982;28;20489;-89
2022/05/28 12:15:35;;;;;;;20.67;2.90;;;15.90;99.90;;;;;;5037868;28;20064;-88
2022/05/28 12:18:10;;;;;;;19.05;3.05;;;15.70;99.90;;;;;;5055316;28;20053;-86
2022/05/28 12:20:58;;;;;;;22.55;3.33;;;15.30;99.90;;;;;;5037933;28;20064;-93
2022/05/28 12:23:38;;;;;;;15.98;2.63;;;15.40;99.90;;;;;;5038343;28;20076;-92
2022/05/28 12:29:09;;;;;;;21.60;2.97;;;15.20;99.90;;;;;;5055557;28;20063;-89
2022/05/28 12:31:35;;;;;;;14.98;3.35;;;15.10;99.90;;;;;;5055342;28;20076;-91
2022/05/28 12:34:01;;;;;;;22.30;4.13;;;15.40;99.90;;;;;;5039067;28;20535;-94
2022/05/28 12:36:40;;;;;;;21.30;3.25;;;15.50;99.90;;;;;;5037552;28;20051;-90
2022/05/28 12:39:42;;;;;;;21.00;3.47;;;15.60;99.90;;;;;;5055275;28;20041;-91
2022/05/28 12:42:23;;;;;;;17.50;3.92;;;15.50;99.90;;;;;;5037285;28;20488;-90
2022/05/28 12:44:51;;;;;;;14.02;3.28;;;15.60;99.90;;;;;;5037362;28;20120;-91
2022/05/28 12:47:28;;;;;;;20.40;3.85;;;15.80;99.90;;;;;;5037879;28;20048;-92
2022/05/28 12:50:18;;;;;;;21.52;3.97;;;16.00;99.90;;;;;;5055052;28;20560;-90
2022/05/28 12:53:04;;;;;;;29.60;3.35;;;16.10;99.90;;;;;;5037284;28;20122;-90
2022/05/28 12:55:38;;;;;;;24.83;3.25;;;16.30;99.90;;;;;;5037385;28;20124;-92
2022/05/28 12:58:10;;;;;;;14.68;2.53;;;16.20;99.90;;;;;;5037643;28;20045;-92
2022/05/28 13:01:06;;;;;;;16.77;2.90;;;16.30;99.90;;;;;;5037395;28;20504;-92
2022/05/28 13:03:37;;;;;;;18.85;3.33;;;16.10;99.90;;;;;;5054941;28;20045;-90
2022/05/28 13:06:22;;;;;;;19.77;3.08;;;16.00;99.90;;;;;;5037873;28;20040;-90
2022/05/28 13:09:03;;;;;;;18.23;2.55;;;16.20;99.90;;;;;;5055949;28;20045;-91
2022/05/28 13:11:36;;;;;;;19.65;3.90;;;16.10;99.90;;;;;;5055197;28;20076;-93